sensor_id;sensor_type;location;lat;lon;timestamp;pressure;altitude;pressure_sealevel;temperature;humidity
70338;BME280;57757;53.198;19.646;2022-08-11T00:02:01;101177.23;;;17.22;48.54
70338;BME280;57757;53.198;19.646;2022-08-11T00:04:34;101172.76;;;17.19;48.61
70338;BME280;57757;53.198;19.646;2022-08-11T00:07:03;101174.62;;;17.16;48.71
70338;BME280;57757;53.198;19.646;2022-08-11T00:09:35;101170.66;;;17.13;48.72
70338;BME280;57757;53.198;19.646;2022-08-11T00:12:15;101175.19;;;17.09;48.72
70338;BME280;57757;53.198;19.646;2022-08-11T00:14:46;101174.98;;;17.05;48.86
70338;BME280;57757;53.198;19.646;2022-08-11T00:17:32;101175.95;;;17.02;48.79
70338;BME280;57757;53.198;19.646;2022-08-11T00:20:20;101175.87;;;17.00;48.90
70338;BME280;57757;53.198;19.646;2022-08-11T00:22:52;101175.52;;;17.00;48.94
70338;BME280;57757;53.198;19.646;2022-08-11T00:25:22;101168.50;;;17.00;49.13
70338;BME280;57757;53.198;19.646;2022-08-11T00:27:50;101169.02;;;17.00;49.23
70338;BME280;57757;53.198;19.646;2022-08-11T00:30:18;101169.23;;;16.99;49.19
70338;BME280;57757;53.198;19.646;2022-08-11T00:32:53;101164.60;;;16.96;49.38
70338;BME280;57757;53.198;19.646;2022-08-11T00:35:26;101163.52;;;16.92;49.35
70338;BME280;57757;53.198;19.646;2022-08-11T00:38:15;101162.77;;;16.88;49.45
70338;BME280;57757;53.198;19.646;2022-08-11T00:40:52;101157.64;;;16.84;49.44
70338;BME280;57757;53.198;19.646;2022-08-11T00:49:10;101163.13;;;16.71;49.72
70338;BME280;57757;53.198;19.646;2022-08-11T00:51:42;101158.97;;;16.70;49.72
70338;BME280;57757;53.198;19.646;2022-08-11T01:00:21;101163.47;;;16.67;50.17
70338;BME280;57757;53.198;19.646;2022-08-11T01:15:03;101161.15;;;16.51;50.60
70338;BME280;57757;53.198;19.646;2022-08-11T01:35:33;101151.44;;;16.42;50.90
70338;BME280;57757;53.198;19.646;2022-08-11T01:38:24;101155.86;;;16.41;50.93
70338;BME280;57757;53.198;19.646;2022-08-11T01:44:03;101152.99;;;16.37;50.99
70338;BME280;57757;53.198;19.646;2022-08-11T01:58:47;101150.82;;;16.34;51.28
70338;BME280;57757;53.198;19.646;2022-08-11T02:01:54;101150.04;;;16.31;51.44
70338;BME280;57757;53.198;19.646;2022-08-11T02:04:37;101149.48;;;16.26;51.47
70338;BME280;57757;53.198;19.646;2022-08-11T02:13:16;101154.02;;;16.10;51.69
70338;BME280;57757;53.198;19.646;2022-08-11T02:22:05;101157.33;;;16.00;51.99
70338;BME280;57757;53.198;19.646;2022-08-11T02:25:21;101160.91;;;15.98;52.06
70338;BME280;57757;53.198;19.646;2022-08-11T02:27:59;101159.25;;;15.94;52.22
70338;BME280;57757;53.198;19.646;2022-08-11T02:30:40;101156.66;;;15.93;52.24
70338;BME280;57757;53.198;19.646;2022-08-11T02:33:38;101157.75;;;15.91;52.19
70338;BME280;57757;53.198;19.646;2022-08-11T02:39:13;101161.84;;;15.84;52.43
70338;BME280;57757;53.198;19.646;2022-08-11T02:45:15;101164.85;;;15.76;52.50
70338;BME280;57757;53.198;19.646;2022-08-11T02:54:06;101164.83;;;15.71;52.78
70338;BME280;57757;53.198;19.646;2022-08-11T02:56:56;101166.65;;;15.69;52.77
70338;BME280;57757;53.198;19.646;2022-08-11T03:05:36;101173.15;;;15.63;53.14
70338;BME280;57757;53.198;19.646;2022-08-11T03:16:59;101180.35;;;15.68;53.50
70338;BME280;57757;53.198;19.646;2022-08-11T03:19:45;101183.21;;;15.72;53.60
70338;BME280;57757;53.198;19.646;2022-08-11T03:25:05;101186.12;;;15.75;53.85
70338;BME280;57757;53.198;19.646;2022-08-11T03:27:51;101183.72;;;15.73;53.94
70338;BME280;57757;53.198;19.646;2022-08-11T03:30:33;101184.98;;;15.72;54.00
70338;BME280;57757;53.198;19.646;2022-08-11T03:33:28;101188.90;;;15.70;54.00
70338;BME280;57757;53.198;19.646;2022-08-11T03:42:45;101189.99;;;15.74;54.35
70338;BME280;57757;53.198;19.646;2022-08-11T03:45:30;101188.08;;;15.74;54.46
70338;BME280;57757;53.198;19.646;2022-08-11T03:51:05;101189.08;;;15.69;54.61
70338;BME280;57757;53.198;19.646;2022-08-11T03:59:31;101187.91;;;15.61;54.56
70338;BME280;57757;53.198;19.646;2022-08-11T04:28:54;101192.41;;;15.94;55.52
70338;BME280;57757;53.198;19.646;2022-08-11T05:10:28;101201.40;;;17.04;55.08
70338;BME280;57757;53.198;19.646;2022-08-11T05:13:10;101196.64;;;17.14;54.97
70338;BME280;57757;53.198;19.646;2022-08-11T05:16:00;101197.55;;;17.23;54.65
70338;BME280;57757;53.198;19.646;2022-08-11T05:18:48;101193.17;;;17.33;54.83
70338;BME280;57757;53.198;19.646;2022-08-11T05:21:34;101189.63;;;17.44;54.82
70338;BME280;57757;53.198;19.646;2022-08-11T05:24:22;101189.70;;;17.51;54.46
70338;BME280;57757;53.198;19.646;2022-08-11T05:27:09;101193.70;;;17.58;54.66
70338;BME280;57757;53.198;19.646;2022-08-11T05:32:42;101188.66;;;17.80;54.60
70338;BME280;57757;53.198;19.646;2022-08-11T05:35:39;101185.95;;;17.92;54.67
70338;BME280;57757;53.198;19.646;2022-08-11T05:38:30;101183.83;;;18.01;54.48
70338;BME280;57757;53.198;19.646;2022-08-11T05:41:19;101183.69;;;18.09;54.34
70338;BME280;57757;53.198;19.646;2022-08-11T05:44:05;101187.70;;;18.19;54.26
70338;BME280;57757;53.198;19.646;2022-08-11T05:46:49;101189.83;;;18.28;54.10
70338;BME280;57757;53.198;19.646;2022-08-11T05:49:34;101190.21;;;18.35;54.24
70338;BME280;57757;53.198;19.646;2022-08-11T05:52:37;101188.81;;;18.44;54.07
70338;BME280;57757;53.198;19.646;2022-08-11T05:55:23;101187.40;;;18.53;54.19
70338;BME280;57757;53.198;19.646;2022-08-11T05:58:32;101187.34;;;18.63;54.18
70338;BME280;57757;53.198;19.646;2022-08-11T06:01:08;101191.01;;;18.73;53.99
70338;BME280;57757;53.198;19.646;2022-08-11T06:03:36;101190.48;;;18.82;53.78
70338;BME280;57757;53.198;19.646;2022-08-11T06:06:26;101191.50;;;18.91;53.75
70338;BME280;57757;53.198;19.646;2022-08-11T06:08:56;101189.63;;;19.02;53.70
70338;BME280;57757;53.198;19.646;2022-08-11T06:11:25;101191.61;;;19.13;53.70
70338;BME280;57757;53.198;19.646;2022-08-11T06:14:12;101186.59;;;19.27;53.60
70338;BME280;57757;53.198;19.646;2022-08-11T06:16:46;101187.89;;;19.42;53.54
70338;BME280;57757;53.198;19.646;2022-08-11T06:19:16;101191.80;;;19.57;53.49
70338;BME280;57757;53.198;19.646;2022-08-11T06:21:46;101195.61;;;19.71;53.45
70338;BME280;57757;53.198;19.646;2022-08-11T06:24:15;101192.00;;;19.84;53.34
70338;BME280;57757;53.198;19.646;2022-08-11T06:26:48;101193.95;;;19.95;53.15
70338;BME280;57757;53.198;19.646;2022-08-11T06:29:44;101193.81;;;20.06;53.01
70338;BME280;57757;53.198;19.646;2022-08-11T06:32:26;101191.91;;;20.16;52.96
70338;BME280;57757;53.198;19.646;2022-08-11T06:35:06;101195.14;;;20.26;52.65
70338;BME280;57757;53.198;19.646;2022-08-11T06:38:00;101193.66;;;20.36;52.74
70338;BME280;57757;53.198;19.646;2022-08-11T06:43:19;101190.69;;;20.60;52.62
70338;BME280;57757;53.198;19.646;2022-08-11T06:48:17;101192.89;;;20.84;52.37
70338;BME280;57757;53.198;19.646;2022-08-11T06:50:52;101196.02;;;20.95;52.08
70338;BME280;57757;53.198;19.646;2022-08-11T06:56:35;101186.02;;;21.15;51.67
70338;BME280;57757;53.198;19.646;2022-08-11T06:59:40;101179.16;;;21.27;51.50
70338;BME280;57757;53.198;19.646;2022-08-11T07:03:00;101178.95;;;21.38;51.69
70338;BME280;57757;53.198;19.646;2022-08-11T07:08:40;101182.65;;;21.59;51.08
70338;BME280;57757;53.198;19.646;2022-08-11T07:14:34;101173.02;;;21.82;50.99
70338;BME280;57757;53.198;19.646;2022-08-11T07:17:27;101173.73;;;21.93;50.66
70338;BME280;57757;53.198;19.646;2022-08-11T07:20:00;101169.58;;;22.01;50.63
70338;BME280;57757;53.198;19.646;2022-08-11T07:22:52;101175.73;;;22.11;50.23
70338;BME280;57757;53.198;19.646;2022-08-11T07:25:39;101171.20;;;22.22;50.24
70338;BME280;57757;53.198;19.646;2022-08-11T07:28:26;101169.13;;;22.34;50.20
70338;BME280;57757;53.198;19.646;2022-08-11T07:31:18;101164.39;;;22.45;49.60
70338;BME280;57757;53.198;19.646;2022-08-11T07:34:03;101167.21;;;22.55;49.51
70338;BME280;57757;53.198;19.646;2022-08-11T07:36:46;101161.95;;;22.66;49.51
70338;BME280;57757;53.198;19.646;2022-08-11T07:39:20;101163.13;;;22.76;49.40
70338;BME280;57757;53.198;19.646;2022-08-11T07:41:51;101166.43;;;22.86;49.39
70338;BME280;57757;53.198;19.646;2022-08-11T07:44:20;101167.13;;;22.96;49.21
70338;BME280;57757;53.198;19.646;2022-08-11T07:47:03;101161.42;;;23.05;48.78
70338;BME280;57757;53.198;19.646;2022-08-11T07:49:49;101164.27;;;23.16;48.65
70338;BME280;57757;53.198;19.646;2022-08-11T07:52:36;101165.58;;;23.27;48.51
70338;BME280;57757;53.198;19.646;2022-08-11T07:55:15;101170.12;;;23.37;48.41
70338;BME280;57757;53.198;19.646;2022-08-11T07:57:44;101175.56;;;23.47;48.20
70338;BME280;57757;53.198;19.646;2022-08-11T08:00:53;101174.20;;;23.58;48.03
70338;BME280;57757;53.198;19.646;2022-08-11T08:03:50;101171.05;;;23.68;47.88
70338;BME280;57757;53.198;19.646;2022-08-11T08:06:35;101168.05;;;23.76;47.63
70338;BME280;57757;53.198;19.646;2022-08-11T08:09:20;101166.71;;;23.84;47.59
70338;BME280;57757;53.198;19.646;2022-08-11T08:12:06;101161.30;;;23.90;47.33
70338;BME280;57757;53.198;19.646;2022-08-11T08:14:52;101157.84;;;23.97;47.17
70338;BME280;57757;53.198;19.646;2022-08-11T08:17:36;101160.20;;;24.05;47.00
70338;BME280;57757;53.198;19.646;2022-08-11T08:20:45;101160.16;;;24.14;46.86
70338;BME280;57757;53.198;19.646;2022-08-11T08:23:13;101159.86;;;24.21;46.65
70338;BME280;57757;53.198;19.646;2022-08-11T08:25:42;101159.09;;;24.31;46.56
70338;BME280;57757;53.198;19.646;2022-08-11T08:28:15;101160.67;;;24.39;46.56
70338;BME280;57757;53.198;19.646;2022-08-11T08:30:44;101160.79;;;24.51;46.43
70338;BME280;57757;53.198;19.646;2022-08-11T08:33:21;101159.43;;;24.63;46.29
70338;BME280;57757;53.198;19.646;2022-08-11T08:35:56;101159.10;;;24.78;46.09
70338;BME280;57757;53.198;19.646;2022-08-11T08:38:47;101154.65;;;24.94;46.02
70338;BME280;57757;53.198;19.646;2022-08-11T08:41:25;101156.79;;;25.10;45.77
70338;BME280;57757;53.198;19.646;2022-08-11T08:43:58;101153.11;;;25.24;45.42
70338;BME280;57757;53.198;19.646;2022-08-11T08:46:57;101155.70;;;25.41;45.36
70338;BME280;57757;53.198;19.646;2022-08-11T08:49:47;101155.14;;;25.54;45.15
70338;BME280;57757;53.198;19.646;2022-08-11T08:52:23;101154.46;;;25.66;44.86
70338;BME280;57757;53.198;19.646;2022-08-11T08:55:03;101151.16;;;25.82;44.80
70338;BME280;57757;53.198;19.646;2022-08-11T08:57:34;101147.69;;;25.98;44.69
70338;BME280;57757;53.198;19.646;2022-08-11T09:00:07;101149.69;;;26.15;44.48
70338;BME280;57757;53.198;19.646;2022-08-11T09:02:40;101144.70;;;26.34;44.24
70338;BME280;57757;53.198;19.646;2022-08-11T09:05:09;101136.02;;;26.53;44.34
70338;BME280;57757;53.198;19.646;2022-08-11T09:07:38;101142.42;;;26.69;43.90
70338;BME280;57757;53.198;19.646;2022-08-11T09:10:08;101140.16;;;26.80;43.54
70338;BME280;57757;53.198;19.646;2022-08-11T09:12:39;101136.46;;;26.77;43.30
70338;BME280;57757;53.198;19.646;2022-08-11T09:15:10;101136.48;;;26.70;43.01
70338;BME280;57757;53.198;19.646;2022-08-11T09:17:47;101135.44;;;26.77;43.13
70338;BME280;57757;53.198;19.646;2022-08-11T09:20:21;101133.23;;;26.87;42.86
70338;BME280;57757;53.198;19.646;2022-08-11T09:22:55;101133.10;;;26.89;42.78
70338;BME280;57757;53.198;19.646;2022-08-11T09:25:59;101135.32;;;27.01;42.57
70338;BME280;57757;53.198;19.646;2022-08-11T09:28:47;101137.00;;;27.22;42.47
70338;BME280;57757;53.198;19.646;2022-08-11T09:31:18;101137.42;;;27.45;42.19
70338;BME280;57757;53.198;19.646;2022-08-11T09:33:53;101130.98;;;27.66;41.91
70338;BME280;57757;53.198;19.646;2022-08-11T09:36:22;101126.60;;;27.87;41.78
70338;BME280;57757;53.198;19.646;2022-08-11T09:39:10;101125.34;;;28.11;41.45
70338;BME280;57757;53.198;19.646;2022-08-11T09:42:00;101115.04;;;28.30;41.19
70338;BME280;57757;53.198;19.646;2022-08-11T09:44:32;101118.92;;;28.45;40.93
70338;BME280;57757;53.198;19.646;2022-08-11T09:47:23;101113.64;;;28.59;40.81
70338;BME280;57757;53.198;19.646;2022-08-11T09:49:54;101115.46;;;28.76;40.59
70338;BME280;57757;53.198;19.646;2022-08-11T09:52:33;101116.36;;;28.92;40.36
70338;BME280;57757;53.198;19.646;2022-08-11T09:55:02;101117.21;;;29.08;40.12
70338;BME280;57757;53.198;19.646;2022-08-11T09:57:44;101118.35;;;29.01;39.69
70338;BME280;57757;53.198;19.646;2022-08-11T10:00:34;101121.24;;;29.02;39.80
70338;BME280;57757;53.198;19.646;2022-08-11T10:03:26;101121.60;;;29.27;39.70
70338;BME280;57757;53.198;19.646;2022-08-11T10:06:02;101116.16;;;29.44;39.17
70338;BME280;57757;53.198;19.646;2022-08-11T10:09:01;101114.70;;;29.24;38.53
70338;BME280;57757;53.198;19.646;2022-08-11T10:11:33;101111.00;;;29.07;38.61
70338;BME280;57757;53.198;19.646;2022-08-11T10:14:05;101107.42;;;29.01;38.48
70338;BME280;57757;53.198;19.646;2022-08-11T10:17:05;101106.30;;;28.91;38.21
70338;BME280;57757;53.198;19.646;2022-08-11T10:19:34;101105.06;;;28.93;38.16
70338;BME280;57757;53.198;19.646;2022-08-11T10:22:06;101103.40;;;28.77;37.78
70338;BME280;57757;53.198;19.646;2022-08-11T10:24:55;101100.88;;;28.49;37.76
70338;BME280;57757;53.198;19.646;2022-08-11T10:27:42;101100.16;;;28.51;37.92
70338;BME280;57757;53.198;19.646;2022-08-11T10:30:30;101098.02;;;28.95;38.01
70338;BME280;57757;53.198;19.646;2022-08-11T10:33:16;101096.91;;;29.41;37.51
70338;BME280;57757;53.198;19.646;2022-08-11T10:36:06;101093.70;;;29.89;37.50
70338;BME280;57757;53.198;19.646;2022-08-11T10:38:45;101085.68;;;30.34;37.19
70338;BME280;57757;53.198;19.646;2022-08-11T10:41:18;101084.81;;;30.76;36.91
70338;BME280;57757;53.198;19.646;2022-08-11T10:47:27;101079.22;;;30.77;36.16
70338;BME280;57757;53.198;19.646;2022-08-11T10:50:03;101081.64;;;30.50;35.73
70338;BME280;57757;53.198;19.646;2022-08-11T10:52:50;101081.37;;;30.05;35.61
70338;BME280;57757;53.198;19.646;2022-08-11T10:55:37;101085.80;;;29.63;35.52
70338;BME280;57757;53.198;19.646;2022-08-11T10:58:25;101084.81;;;29.36;35.63
70338;BME280;57757;53.198;19.646;2022-08-11T11:01:09;101075.34;;;29.62;35.77
70338;BME280;57757;53.198;19.646;2022-08-11T11:03:38;101072.47;;;29.80;35.11
70338;BME280;57757;53.198;19.646;2022-08-11T11:06:20;101063.96;;;29.99;35.26
70338;BME280;57757;53.198;19.646;2022-08-11T11:11:53;101051.29;;;31.20;34.83
70338;BME280;57757;53.198;19.646;2022-08-11T11:14:41;101052.95;;;31.16;34.54
70338;BME280;57757;53.198;19.646;2022-08-11T11:17:37;101054.52;;;31.11;34.45
70338;BME280;57757;53.198;19.646;2022-08-11T11:20:28;101053.35;;;30.83;33.99
70338;BME280;57757;53.198;19.646;2022-08-11T11:25:58;101047.60;;;30.61;33.95
70338;BME280;57757;53.198;19.646;2022-08-11T11:36:56;101044.70;;;30.72;33.82
70338;BME280;57757;53.198;19.646;2022-08-11T11:39:29;101041.83;;;31.45;33.85
70338;BME280;57757;53.198;19.646;2022-08-11T11:42:06;101033.80;;;32.15;33.64
70338;BME280;57757;53.198;19.646;2022-08-11T11:44:42;101028.01;;;32.73;33.05
70338;BME280;57757;53.198;19.646;2022-08-11T11:47:11;101033.00;;;33.10;32.73
70338;BME280;57757;53.198;19.646;2022-08-11T11:49:41;101026.55;;;32.96;32.20
70338;BME280;57757;53.198;19.646;2022-08-11T11:52:14;101024.02;;;32.63;32.12
70338;BME280;57757;53.198;19.646;2022-08-11T11:54:47;101016.00;;;32.13;31.69
70338;BME280;57757;53.198;19.646;2022-08-11T11:57:18;101012.46;;;31.60;31.85
70338;BME280;57757;53.198;19.646;2022-08-11T12:00:08;101006.39;;;31.16;31.67
70338;BME280;57757;53.198;19.646;2022-08-11T12:03:03;101005.08;;;30.77;31.70
70338;BME280;57757;53.198;19.646;2022-08-11T12:05:35;100998.89;;;31.05;31.80
70338;BME280;57757;53.198;19.646;2022-08-11T12:08:03;100995.60;;;31.69;32.07
70338;BME280;57757;53.198;19.646;2022-08-11T12:11:02;100999.11;;;32.60;31.83
70338;BME280;57757;53.198;19.646;2022-08-11T12:13:49;100995.89;;;33.51;31.49
70338;BME280;57757;53.198;19.646;2022-08-11T12:16:21;100993.95;;;34.24;31.35
70338;BME280;57757;53.198;19.646;2022-08-11T12:19:07;100981.87;;;35.06;30.82
70338;BME280;57757;53.198;19.646;2022-08-11T12:21:39;100974.79;;;35.79;30.55
70338;BME280;57757;53.198;19.646;2022-08-11T12:24:29;100972.39;;;36.58;30.14
70338;BME280;57757;53.198;19.646;2022-08-11T12:27:14;100967.09;;;37.07;29.64
70338;BME280;57757;53.198;19.646;2022-08-11T12:32:29;100953.38;;;37.68;29.39
70338;BME280;57757;53.198;19.646;2022-08-11T12:34:57;100954.05;;;38.03;29.20
70338;BME280;57757;53.198;19.646;2022-08-11T12:37:38;100954.27;;;38.34;28.79
70338;BME280;57757;53.198;19.646;2022-08-11T12:40:11;100954.51;;;38.55;28.46
70338;BME280;57757;53.198;19.646;2022-08-11T12:43:17;100951.08;;;38.68;28.34
70338;BME280;57757;53.198;19.646;2022-08-11T12:46:28;100952.46;;;38.88;28.05
70338;BME280;57757;53.198;19.646;2022-08-11T12:49:03;100946.39;;;39.13;27.50
70338;BME280;57757;53.198;19.646;2022-08-11T12:51:50;100939.71;;;39.28;27.33
70338;BME280;57757;53.198;19.646;2022-08-11T12:57:46;100937.44;;;40.08;26.79
70338;BME280;57757;53.198;19.646;2022-08-11T13:00:31;100941.95;;;40.45;26.39
70338;BME280;57757;53.198;19.646;2022-08-11T13:03:19;100944.84;;;40.62;26.03
70338;BME280;57757;53.198;19.646;2022-08-11T13:06:03;100942.66;;;40.80;25.72
70338;BME280;57757;53.198;19.646;2022-08-11T13:08:34;100936.03;;;41.13;25.90
70338;BME280;57757;53.198;19.646;2022-08-11T13:11:03;100931.75;;;41.63;25.37
70338;BME280;57757;53.198;19.646;2022-08-11T13:13:51;100930.13;;;41.99;25.01
70338;BME280;57757;53.198;19.646;2022-08-11T13:16:28;100930.94;;;42.04;24.92
70338;BME280;57757;53.198;19.646;2022-08-11T13:18:58;100925.27;;;42.27;24.53
70338;BME280;57757;53.198;19.646;2022-08-11T13:21:28;100921.49;;;42.55;24.59
70338;BME280;57757;53.198;19.646;2022-08-11T13:23:57;100918.36;;;42.88;24.00
70338;BME280;57757;53.198;19.646;2022-08-11T13:26:33;100920.61;;;43.23;23.83
70338;BME280;57757;53.198;19.646;2022-08-11T13:29:22;100920.37;;;43.47;23.54
70338;BME280;57757;53.198;19.646;2022-08-11T13:31:53;100915.77;;;43.69;23.13
70338;BME280;57757;53.198;19.646;2022-08-11T13:34:23;100917.83;;;43.90;23.33
70338;BME280;57757;53.198;19.646;2022-08-11T13:37:00;100911.29;;;44.05;22.68
70338;BME280;57757;53.198;19.646;2022-08-11T13:39:30;100912.82;;;43.75;22.36
70338;BME280;57757;53.198;19.646;2022-08-11T13:42:00;100914.91;;;43.18;22.50
70338;BME280;57757;53.198;19.646;2022-08-11T13:44:31;100907.92;;;42.11;21.96
70338;BME280;57757;53.198;19.646;2022-08-11T13:47:02;100907.33;;;41.48;22.00
70338;BME280;57757;53.198;19.646;2022-08-11T13:49:34;100907.00;;;41.04;22.07
70338;BME280;57757;53.198;19.646;2022-08-11T13:52:13;100903.54;;;41.32;21.83
70338;BME280;57757;53.198;19.646;2022-08-11T13:54:44;100898.45;;;41.95;21.80
70338;BME280;57757;53.198;19.646;2022-08-11T13:57:13;100896.61;;;42.59;21.60
70338;BME280;57757;53.198;19.646;2022-08-11T14:00:05;100892.17;;;43.42;21.36
70338;BME280;57757;53.198;19.646;2022-08-11T14:02:51;100889.89;;;44.29;21.09
70338;BME280;57757;53.198;19.646;2022-08-11T14:05:30;100891.67;;;44.91;20.85
70338;BME280;57757;53.198;19.646;2022-08-11T14:08:02;100891.43;;;45.00;20.42
70338;BME280;57757;53.198;19.646;2022-08-11T14:10:33;100887.04;;;44.30;20.28
70338;BME280;57757;53.198;19.646;2022-08-11T14:13:08;100886.38;;;44.02;20.19
70338;BME280;57757;53.198;19.646;2022-08-11T14:15:57;100887.59;;;44.32;20.02
70338;BME280;57757;53.198;19.646;2022-08-11T14:18:30;100890.17;;;44.48;19.74
70338;BME280;57757;53.198;19.646;2022-08-11T14:21:00;100892.35;;;44.76;19.76
70338;BME280;57757;53.198;19.646;2022-08-11T14:23:53;100893.10;;;45.36;19.32
70338;BME280;57757;53.198;19.646;2022-08-11T14:26:28;100887.71;;;45.67;19.13
70338;BME280;57757;53.198;19.646;2022-08-11T14:31:53;100881.48;;;46.44;19.00
70338;BME280;57757;53.198;19.646;2022-08-11T14:34:25;100879.23;;;46.80;18.72
70338;BME280;57757;53.198;19.646;2022-08-11T14:36:58;100874.86;;;47.16;18.54
70338;BME280;57757;53.198;19.646;2022-08-11T14:39:30;100875.94;;;47.24;18.15
70338;BME280;57757;53.198;19.646;2022-08-11T14:42:05;100872.85;;;47.34;18.13
70338;BME280;57757;53.198;19.646;2022-08-11T14:44:58;100873.02;;;47.80;17.75
70338;BME280;57757;53.198;19.646;2022-08-11T14:47:47;100872.52;;;47.87;17.51
70338;BME280;57757;53.198;19.646;2022-08-11T14:50:21;100872.80;;;47.03;17.37
70338;BME280;57757;53.198;19.646;2022-08-11T14:53:07;100869.02;;;45.70;17.14
70338;BME280;57757;53.198;19.646;2022-08-11T14:55:38;100864.27;;;43.98;17.17
70338;BME280;57757;53.198;19.646;2022-08-11T14:58:25;100861.56;;;42.30;17.06
70338;BME280;57757;53.198;19.646;2022-08-11T15:00:57;100866.89;;;40.95;17.50
70338;BME280;57757;53.198;19.646;2022-08-11T15:03:29;100867.19;;;40.04;17.51
70338;BME280;57757;53.198;19.646;2022-08-11T15:05:59;100868.20;;;38.98;17.63
70338;BME280;57757;53.198;19.646;2022-08-11T15:08:30;100871.94;;;37.87;17.66
70338;BME280;57757;53.198;19.646;2022-08-11T15:11:17;100874.05;;;36.77;18.03
70338;BME280;57757;53.198;19.646;2022-08-11T15:14:02;100871.23;;;35.83;18.10
70338;BME280;57757;53.198;19.646;2022-08-11T15:16:31;100869.67;;;35.22;18.29
70338;BME280;57757;53.198;19.646;2022-08-11T15:19:16;100865.52;;;35.51;18.79
70338;BME280;57757;53.198;19.646;2022-08-11T15:21:48;100864.84;;;36.74;18.76
70338;BME280;57757;53.198;19.646;2022-08-11T15:24:33;100866.89;;;36.95;18.44
70338;BME280;57757;53.198;19.646;2022-08-11T15:27:20;100867.09;;;36.67;18.23
70338;BME280;57757;53.198;19.646;2022-08-11T15:30:06;100864.71;;;36.17;18.32
70338;BME280;57757;53.198;19.646;2022-08-11T15:33:05;100861.79;;;35.65;18.45
70338;BME280;57757;53.198;19.646;2022-08-11T15:35:51;100860.48;;;35.36;18.69
70338;BME280;57757;53.198;19.646;2022-08-11T15:38:39;100856.27;;;34.98;18.66
70338;BME280;57757;53.198;19.646;2022-08-11T15:41:10;100855.48;;;34.74;18.73
70338;BME280;57757;53.198;19.646;2022-08-11T15:43:56;100859.16;;;35.93;19.39
70338;BME280;57757;53.198;19.646;2022-08-11T15:49:30;100854.99;;;39.22;18.77
70338;BME280;57757;53.198;19.646;2022-08-11T15:52:20;100855.88;;;40.98;18.60
70338;BME280;57757;53.198;19.646;2022-08-11T15:54:50;100850.09;;;42.17;17.97
70338;BME280;57757;53.198;19.646;2022-08-11T15:57:20;100844.98;;;43.23;17.94
70338;BME280;57757;53.198;19.646;2022-08-11T16:00:07;100850.27;;;43.79;17.50
70338;BME280;57757;53.198;19.646;2022-08-11T16:02:53;100850.36;;;43.81;17.41
70338;BME280;57757;53.198;19.646;2022-08-11T16:05:43;100844.45;;;43.17;16.90
70338;BME280;57757;53.198;19.646;2022-08-11T16:08:23;100845.98;;;41.92;16.87
70338;BME280;57757;53.198;19.646;2022-08-11T16:11:03;100849.59;;;40.52;17.04
70338;BME280;57757;53.198;19.646;2022-08-11T16:13:39;100848.24;;;39.37;17.14
70338;BME280;57757;53.198;19.646;2022-08-11T16:16:09;100853.98;;;38.32;17.24
70338;BME280;57757;53.198;19.646;2022-08-11T16:18:42;100851.98;;;37.29;17.66
70338;BME280;57757;53.198;19.646;2022-08-11T16:21:14;100856.16;;;36.29;17.61
70338;BME280;57757;53.198;19.646;2022-08-11T16:24:06;100854.02;;;35.28;18.11
70338;BME280;57757;53.198;19.646;2022-08-11T16:26:38;100853.31;;;34.47;18.25
70338;BME280;57757;53.198;19.646;2022-08-11T16:29:28;100853.89;;;33.59;18.41
70338;BME280;57757;53.198;19.646;2022-08-11T16:32:00;100854.71;;;32.87;18.59
70338;BME280;57757;53.198;19.646;2022-08-11T16:34:59;100853.86;;;32.26;18.97
70338;BME280;57757;53.198;19.646;2022-08-11T16:37:43;100853.60;;;31.67;19.39
70338;BME280;57757;53.198;19.646;2022-08-11T16:40:29;100851.72;;;31.20;19.76
70338;BME280;57757;53.198;19.646;2022-08-11T16:42:58;100849.79;;;30.81;19.75
70338;BME280;57757;53.198;19.646;2022-08-11T16:45:45;100852.76;;;30.41;20.13
70338;BME280;57757;53.198;19.646;2022-08-11T16:48:38;100855.95;;;30.06;20.46
70338;BME280;57757;53.198;19.646;2022-08-11T16:51:11;100854.29;;;29.74;20.64
70338;BME280;57757;53.198;19.646;2022-08-11T16:53:45;100854.08;;;29.46;20.78
70338;BME280;57757;53.198;19.646;2022-08-11T16:56:37;100852.26;;;29.17;20.95
70338;BME280;57757;53.198;19.646;2022-08-11T16:59:21;100850.02;;;28.96;21.23
70338;BME280;57757;53.198;19.646;2022-08-11T17:01:53;100848.20;;;28.86;21.45
70338;BME280;57757;53.198;19.646;2022-08-11T17:07:13;100852.85;;;29.06;21.83
70338;BME280;57757;53.198;19.646;2022-08-11T17:10:17;100852.07;;;29.23;21.89
70338;BME280;57757;53.198;19.646;2022-08-11T17:13:25;100849.45;;;29.66;21.91
70338;BME280;57757;53.198;19.646;2022-08-11T17:15:58;100853.49;;;30.15;22.02
70338;BME280;57757;53.198;19.646;2022-08-11T17:18:41;100848.21;;;30.81;22.02
70338;BME280;57757;53.198;19.646;2022-08-11T17:21:28;100850.56;;;31.51;21.93
70338;BME280;57757;53.198;19.646;2022-08-11T17:24:06;100849.70;;;32.19;21.79
70338;BME280;57757;53.198;19.646;2022-08-11T17:26:40;100852.08;;;32.37;21.41
70338;BME280;57757;53.198;19.646;2022-08-11T17:29:25;100851.20;;;32.44;21.34
70338;BME280;57757;53.198;19.646;2022-08-11T17:31:56;100857.23;;;32.24;21.22
70338;BME280;57757;53.198;19.646;2022-08-11T17:34:44;100855.76;;;31.69;21.45
70338;BME280;57757;53.198;19.646;2022-08-11T17:37:30;100860.80;;;31.08;21.69
70338;BME280;57757;53.198;19.646;2022-08-11T17:40:02;100861.80;;;30.54;21.77